sensor_id;sensor_type;location;lat;lon;timestamp;P1;durP1;ratioP1;P2;durP2;ratioP2
47365;SDS011;33105;47.964;7.982;2023-05-10T00:00:30;1.02;;;0.50;;
47365;SDS011;33105;47.964;7.982;2023-05-10T00:03:32;1.85;;;0.70;;
47365;SDS011;33105;47.964;7.982;2023-05-10T00:06:33;3.60;;;0.50;;
47365;SDS011;33105;47.964;7.982;2023-05-10T00:09:35;3.65;;;0.57;;
47365;SDS011;33105;47.964;7.982;2023-05-10T00:12:36;5.95;;;0.80;;
47365;SDS011;33105;47.964;7.982;2023-05-10T00:15:37;0.60;;;0.60;;
47365;SDS011;33105;47.964;7.982;2023-05-10T00:18:39;0.80;;;0.80;;
47365;SDS011;33105;47.964;7.982;2023-05-10T00:21:41;3.15;;;0.93;;
47365;SDS011;33105;47.964;7.982;2023-05-10T00:24:42;2.80;;;0.80;;
47365;SDS011;33105;47.964;7.982;2023-05-10T00:27:43;2.15;;;0.90;;
47365;SDS011;33105;47.964;7.982;2023-05-10T00:30:45;3.30;;;0.98;;
47365;SDS011;33105;47.964;7.982;2023-05-10T00:33:47;3.65;;;0.90;;
47365;SDS011;33105;47.964;7.982;2023-05-10T00:36:48;1.35;;;0.90;;
47365;SDS011;33105;47.964;7.982;2023-05-10T00:39:49;2.78;;;0.73;;
47365;SDS011;33105;47.964;7.982;2023-05-10T00:42:50;1.67;;;1.00;;
47365;SDS011;33105;47.964;7.982;2023-05-10T00:45:52;2.47;;;0.70;;
47365;SDS011;33105;47.964;7.982;2023-05-10T00:48:53;0.70;;;0.60;;
47365;SDS011;33105;47.964;7.982;2023-05-10T00:51:55;2.42;;;0.55;;
47365;SDS011;33105;47.964;7.982;2023-05-10T00:54:56;1.60;;;0.70;;
47365;SDS011;33105;47.964;7.982;2023-05-10T00:57:58;1.35;;;0.80;;
47365;SDS011;33105;47.964;7.982;2023-05-10T01:00:59;6.53;;;0.70;;
47365;SDS011;33105;47.964;7.982;2023-05-10T01:04:02;2.95;;;0.75;;
47365;SDS011;33105;47.964;7.982;2023-05-10T01:07:04;4.32;;;0.60;;
47365;SDS011;33105;47.964;7.982;2023-05-10T01:10:06;1.25;;;0.80;;
47365;SDS011;33105;47.964;7.982;2023-05-10T01:13:08;4.55;;;0.98;;
47365;SDS011;33105;47.964;7.982;2023-05-10T01:16:10;1.88;;;0.70;;
47365;SDS011;33105;47.964;7.982;2023-05-10T01:19:14;4.63;;;0.98;;
47365;SDS011;33105;47.964;7.982;2023-05-10T01:25:31;1.42;;;0.70;;
47365;SDS011;33105;47.964;7.982;2023-05-10T01:35:23;1.25;;;0.70;;
47365;SDS011;33105;47.964;7.982;2023-05-10T01:42:09;1.20;;;0.75;;
47365;SDS011;33105;47.964;7.982;2023-05-10T01:45:27;2.17;;;0.82;;
47365;SDS011;33105;47.964;7.982;2023-05-10T01:48:32;0.90;;;0.63;;
47365;SDS011;33105;47.964;7.982;2023-05-10T01:51:36;1.00;;;0.70;;
47365;SDS011;33105;47.964;7.982;2023-05-10T01:54:43;1.55;;;0.80;;
47365;SDS011;33105;47.964;7.982;2023-05-10T01:57:51;1.23;;;0.90;;
47365;SDS011;33105;47.964;7.982;2023-05-10T02:00:58;0.77;;;0.77;;
47365;SDS011;33105;47.964;7.982;2023-05-10T02:04:04;2.75;;;0.90;;
47365;SDS011;33105;47.964;7.982;2023-05-10T02:07:07;5.88;;;0.90;;
47365;SDS011;33105;47.964;7.982;2023-05-10T02:10:11;1.58;;;1.00;;
47365;SDS011;33105;47.964;7.982;2023-05-10T02:13:14;2.30;;;1.05;;
47365;SDS011;33105;47.964;7.982;2023-05-10T02:16:17;1.38;;;1.20;;
47365;SDS011;33105;47.964;7.982;2023-05-10T02:19:24;1.83;;;1.42;;
47365;SDS011;33105;47.964;7.982;2023-05-10T02:22:27;2.55;;;1.55;;
47365;SDS011;33105;47.964;7.982;2023-05-10T02:25:29;4.50;;;1.50;;
47365;SDS011;33105;47.964;7.982;2023-05-10T02:28:33;2.95;;;1.70;;
47365;SDS011;33105;47.964;7.982;2023-05-10T02:31:36;6.22;;;1.58;;
47365;SDS011;33105;47.964;7.982;2023-05-10T02:34:39;1.65;;;1.20;;
47365;SDS011;33105;47.964;7.982;2023-05-10T02:37:42;10.50;;;1.50;;
47365;SDS011;33105;47.964;7.982;2023-05-10T02:40:44;1.95;;;1.20;;
47365;SDS011;33105;47.964;7.982;2023-05-10T02:43:51;4.95;;;1.25;;
47365;SDS011;33105;47.964;7.982;2023-05-10T02:46:57;3.77;;;1.77;;
47365;SDS011;33105;47.964;7.982;2023-05-10T02:49:58;3.47;;;1.60;;
47365;SDS011;33105;47.964;7.982;2023-05-10T02:53:00;2.22;;;1.75;;
47365;SDS011;33105;47.964;7.982;2023-05-10T02:56:05;3.70;;;1.98;;
47365;SDS011;33105;47.964;7.982;2023-05-10T02:59:15;3.08;;;1.90;;
47365;SDS011;33105;47.964;7.982;2023-05-10T03:02:16;2.20;;;1.75;;
47365;SDS011;33105;47.964;7.982;2023-05-10T03:05:17;3.05;;;1.70;;
47365;SDS011;33105;47.964;7.982;2023-05-10T03:08:19;3.78;;;1.63;;
47365;SDS011;33105;47.964;7.982;2023-05-10T03:18:09;4.20;;;1.63;;
47365;SDS011;33105;47.964;7.982;2023-05-10T03:21:13;2.15;;;1.70;;
47365;SDS011;33105;47.964;7.982;2023-05-10T03:24:20;2.67;;;1.90;;
47365;SDS011;33105;47.964;7.982;2023-05-10T03:27:24;2.15;;;1.90;;
47365;SDS011;33105;47.964;7.982;2023-05-10T03:30:28;4.32;;;2.10;;
47365;SDS011;33105;47.964;7.982;2023-05-10T03:33:30;4.20;;;1.90;;
47365;SDS011;33105;47.964;7.982;2023-05-10T03:36:32;6.05;;;1.63;;
47365;SDS011;33105;47.964;7.982;2023-05-10T03:39:34;2.35;;;1.88;;
47365;SDS011;33105;47.964;7.982;2023-05-10T03:42:37;1.73;;;1.30;;
47365;SDS011;33105;47.964;7.982;2023-05-10T03:45:38;3.72;;;1.38;;
47365;SDS011;33105;47.964;7.982;2023-05-10T03:48:39;4.75;;;1.40;;
47365;SDS011;33105;47.964;7.982;2023-05-10T03:51:42;3.15;;;1.85;;
47365;SDS011;33105;47.964;7.982;2023-05-10T03:54:43;3.50;;;1.83;;
47365;SDS011;33105;47.964;7.982;2023-05-10T03:57:46;8.00;;;2.20;;
47365;SDS011;33105;47.964;7.982;2023-05-10T04:00:51;4.03;;;2.00;;
47365;SDS011;33105;47.964;7.982;2023-05-10T04:03:53;2.75;;;2.00;;
47365;SDS011;33105;47.964;7.982;2023-05-10T04:06:54;7.70;;;2.42;;
47365;SDS011;33105;47.964;7.982;2023-05-10T04:09:56;4.57;;;2.25;;
47365;SDS011;33105;47.964;7.982;2023-05-10T04:12:57;3.20;;;2.50;;
47365;SDS011;33105;47.964;7.982;2023-05-10T04:15:59;3.25;;;2.20;;
47365;SDS011;33105;47.964;7.982;2023-05-10T04:19:00;2.22;;;1.70;;
47365;SDS011;33105;47.964;7.982;2023-05-10T04:22:02;3.03;;;1.70;;
47365;SDS011;33105;47.964;7.982;2023-05-10T04:25:05;5.03;;;1.58;;
47365;SDS011;33105;47.964;7.982;2023-05-10T04:28:07;4.50;;;1.40;;
47365;SDS011;33105;47.964;7.982;2023-05-10T04:31:09;3.70;;;1.48;;
47365;SDS011;33105;47.964;7.982;2023-05-10T04:34:11;4.55;;;2.00;;
47365;SDS011;33105;47.964;7.982;2023-05-10T04:37:12;4.65;;;2.50;;
47365;SDS011;33105;47.964;7.982;2023-05-10T04:40:14;5.97;;;3.35;;
47365;SDS011;33105;47.964;7.982;2023-05-10T04:43:17;6.45;;;3.05;;
47365;SDS011;33105;47.964;7.982;2023-05-10T04:46:19;5.88;;;3.50;;
47365;SDS011;33105;47.964;7.982;2023-05-10T04:49:21;6.55;;;3.72;;
47365;SDS011;33105;47.964;7.982;2023-05-10T04:52:23;8.88;;;3.20;;
47365;SDS011;33105;47.964;7.982;2023-05-10T04:55:24;5.43;;;3.08;;
47365;SDS011;33105;47.964;7.982;2023-05-10T04:58:27;5.35;;;3.20;;
47365;SDS011;33105;47.964;7.982;2023-05-10T05:01:29;3.50;;;2.85;;
47365;SDS011;33105;47.964;7.982;2023-05-10T05:04:31;4.80;;;2.97;;
47365;SDS011;33105;47.964;7.982;2023-05-10T05:07:33;3.42;;;2.60;;
47365;SDS011;33105;47.964;7.982;2023-05-10T05:10:34;9.10;;;2.03;;
47365;SDS011;33105;47.964;7.982;2023-05-10T05:13:35;2.60;;;1.92;;
47365;SDS011;33105;47.964;7.982;2023-05-10T05:16:37;2.30;;;1.55;;
47365;SDS011;33105;47.964;7.982;2023-05-10T05:19:38;3.50;;;2.33;;
47365;SDS011;33105;47.964;7.982;2023-05-10T05:22:40;7.28;;;2.33;;
47365;SDS011;33105;47.964;7.982;2023-05-10T05:25:42;4.13;;;2.08;;
47365;SDS011;33105;47.964;7.982;2023-05-10T05:28:43;2.80;;;2.25;;
47365;SDS011;33105;47.964;7.982;2023-05-10T05:31:45;7.30;;;2.20;;
47365;SDS011;33105;47.964;7.982;2023-05-10T05:34:46;5.30;;;1.80;;
47365;SDS011;33105;47.964;7.982;2023-05-10T05:37:48;3.90;;;2.38;;
47365;SDS011;33105;47.964;7.982;2023-05-10T05:40:49;4.88;;;2.60;;
47365;SDS011;33105;47.964;7.982;2023-05-10T05:43:51;3.05;;;2.80;;
47365;SDS011;33105;47.964;7.982;2023-05-10T05:46:52;4.00;;;3.00;;
47365;SDS011;33105;47.964;7.982;2023-05-10T05:49:53;4.03;;;2.83;;
47365;SDS011;33105;47.964;7.982;2023-05-10T05:52:56;3.72;;;2.60;;
47365;SDS011;33105;47.964;7.982;2023-05-10T05:55:58;4.63;;;2.00;;
47365;SDS011;33105;47.964;7.982;2023-05-10T05:59:00;5.20;;;1.92;;
47365;SDS011;33105;47.964;7.982;2023-05-10T06:02:01;9.27;;;2.28;;
47365;SDS011;33105;47.964;7.982;2023-05-10T06:05:02;2.55;;;2.13;;
47365;SDS011;33105;47.964;7.982;2023-05-10T06:08:04;2.92;;;2.60;;
47365;SDS011;33105;47.964;7.982;2023-05-10T06:11:06;3.80;;;2.20;;
47365;SDS011;33105;47.964;7.982;2023-05-10T06:14:08;9.73;;;2.63;;
47365;SDS011;33105;47.964;7.982;2023-05-10T06:17:10;4.65;;;2.30;;
47365;SDS011;33105;47.964;7.982;2023-05-10T06:20:11;4.68;;;1.85;;
47365;SDS011;33105;47.964;7.982;2023-05-10T06:23:15;8.05;;;2.40;;
47365;SDS011;33105;47.964;7.982;2023-05-10T06:26:16;2.60;;;2.10;;
47365;SDS011;33105;47.964;7.982;2023-05-10T06:29:17;4.88;;;2.50;;
47365;SDS011;33105;47.964;7.982;2023-05-10T06:32:19;2.45;;;1.70;;
47365;SDS011;33105;47.964;7.982;2023-05-10T06:35:20;10.73;;;2.42;;
47365;SDS011;33105;47.964;7.982;2023-05-10T06:38:21;7.47;;;2.15;;
47365;SDS011;33105;47.964;7.982;2023-05-10T06:41:23;2.70;;;1.90;;
47365;SDS011;33105;47.964;7.982;2023-05-10T06:44:24;4.13;;;1.80;;
47365;SDS011;33105;47.964;7.982;2023-05-10T06:47:25;8.65;;;2.05;;
47365;SDS011;33105;47.964;7.982;2023-05-10T06:50:27;2.95;;;1.45;;
47365;SDS011;33105;47.964;7.982;2023-05-10T06:53:28;3.95;;;1.02;;
47365;SDS011;33105;47.964;7.982;2023-05-10T06:56:29;5.82;;;1.38;;
47365;SDS011;33105;47.964;7.982;2023-05-10T06:59:30;3.83;;;1.13;;
47365;SDS011;33105;47.964;7.982;2023-05-10T07:02:32;2.45;;;1.45;;
47365;SDS011;33105;47.964;7.982;2023-05-10T07:05:33;5.30;;;2.25;;
47365;SDS011;33105;47.964;7.982;2023-05-10T07:08:34;3.05;;;0.90;;
47365;SDS011;33105;47.964;7.982;2023-05-10T07:11:35;2.90;;;0.90;;
47365;SDS011;33105;47.964;7.982;2023-05-10T07:14:38;1.45;;;0.82;;
47365;SDS011;33105;47.964;7.982;2023-05-10T07:17:39;2.78;;;1.00;;
47365;SDS011;33105;47.964;7.982;2023-05-10T07:20:40;1.65;;;0.80;;
47365;SDS011;33105;47.964;7.982;2023-05-10T07:23:41;2.80;;;0.90;;
47365;SDS011;33105;47.964;7.982;2023-05-10T07:26:43;1.42;;;0.70;;
47365;SDS011;33105;47.964;7.982;2023-05-10T07:29:44;1.23;;;0.70;;
47365;SDS011;33105;47.964;7.982;2023-05-10T07:32:45;2.08;;;0.80;;
47365;SDS011;33105;47.964;7.982;2023-05-10T07:35:47;2.25;;;1.00;;
47365;SDS011;33105;47.964;7.982;2023-05-10T07:38:48;3.20;;;1.10;;
47365;SDS011;33105;47.964;7.982;2023-05-10T07:41:50;1.65;;;1.10;;
47365;SDS011;33105;47.964;7.982;2023-05-10T07:44:51;5.90;;;0.95;;
47365;SDS011;33105;47.964;7.982;2023-05-10T07:47:52;1.65;;;0.73;;
47365;SDS011;33105;47.964;7.982;2023-05-10T07:50:53;3.45;;;1.02;;
47365;SDS011;33105;47.964;7.982;2023-05-10T07:53:55;1.55;;;0.75;;
47365;SDS011;33105;47.964;7.982;2023-05-10T07:56:56;3.80;;;1.00;;
47365;SDS011;33105;47.964;7.982;2023-05-10T07:59:57;2.17;;;0.82;;
47365;SDS011;33105;47.964;7.982;2023-05-10T08:02:58;2.75;;;0.90;;
47365;SDS011;33105;47.964;7.982;2023-05-10T08:06:00;2.90;;;0.90;;
47365;SDS011;33105;47.964;7.982;2023-05-10T08:09:01;4.78;;;0.98;;
47365;SDS011;33105;47.964;7.982;2023-05-10T08:12:03;3.58;;;0.90;;
47365;SDS011;33105;47.964;7.982;2023-05-10T08:15:04;1.10;;;1.00;;
47365;SDS011;33105;47.964;7.982;2023-05-10T08:18:06;2.35;;;1.00;;
47365;SDS011;33105;47.964;7.982;2023-05-10T08:21:07;5.00;;;1.23;;
47365;SDS011;33105;47.964;7.982;2023-05-10T08:24:08;2.38;;;1.20;;
47365;SDS011;33105;47.964;7.982;2023-05-10T08:27:10;3.35;;;0.73;;
47365;SDS011;33105;47.964;7.982;2023-05-10T08:30:12;4.38;;;1.63;;
47365;SDS011;33105;47.964;7.982;2023-05-10T08:33:14;4.68;;;1.00;;
47365;SDS011;33105;47.964;7.982;2023-05-10T08:36:15;7.10;;;1.10;;
47365;SDS011;33105;47.964;7.982;2023-05-10T08:39:20;5.28;;;1.10;;
47365;SDS011;33105;47.964;7.982;2023-05-10T08:42:21;6.65;;;0.90;;
47365;SDS011;33105;47.964;7.982;2023-05-10T08:45:26;3.65;;;0.82;;
47365;SDS011;33105;47.964;7.982;2023-05-10T08:48:32;5.43;;;0.77;;
47365;SDS011;33105;47.964;7.982;2023-05-10T08:51:36;3.15;;;0.80;;
47365;SDS011;33105;47.964;7.982;2023-05-10T08:54:40;2.28;;;0.95;;
47365;SDS011;33105;47.964;7.982;2023-05-10T08:57:42;2.85;;;0.82;;
47365;SDS011;33105;47.964;7.982;2023-05-10T09:00:43;4.20;;;0.85;;
47365;SDS011;33105;47.964;7.982;2023-05-10T09:03:45;4.45;;;0.85;;
47365;SDS011;33105;47.964;7.982;2023-05-10T09:06:47;3.03;;;0.77;;
47365;SDS011;33105;47.964;7.982;2023-05-10T09:09:49;2.22;;;0.65;;
47365;SDS011;33105;47.964;7.982;2023-05-10T09:12:51;5.88;;;0.75;;
47365;SDS011;33105;47.964;7.982;2023-05-10T09:15:53;2.95;;;0.80;;
47365;SDS011;33105;47.964;7.982;2023-05-10T09:18:55;8.82;;;1.10;;
47365;SDS011;33105;47.964;7.982;2023-05-10T09:21:56;2.33;;;1.00;;
47365;SDS011;33105;47.964;7.982;2023-05-10T09:25:11;1.55;;;0.63;;
47365;SDS011;33105;47.964;7.982;2023-05-10T09:28:14;3.13;;;0.70;;
47365;SDS011;33105;47.964;7.982;2023-05-10T09:31:15;2.13;;;0.70;;
47365;SDS011;33105;47.964;7.982;2023-05-10T09:34:17;2.17;;;0.90;;
47365;SDS011;33105;47.964;7.982;2023-05-10T09:37:19;4.00;;;1.00;;
47365;SDS011;33105;47.964;7.982;2023-05-10T09:40:30;3.60;;;0.93;;
47365;SDS011;33105;47.964;7.982;2023-05-10T09:43:37;5.43;;;1.15;;
47365;SDS011;33105;47.964;7.982;2023-05-10T09:46:38;6.45;;;0.93;;
47365;SDS011;33105;47.964;7.982;2023-05-10T09:49:41;4.32;;;0.93;;
47365;SDS011;33105;47.964;7.982;2023-05-10T09:56:00;7.07;;;1.20;;
47365;SDS011;33105;47.964;7.982;2023-05-10T09:59:04;7.57;;;0.98;;
47365;SDS011;33105;47.964;7.982;2023-05-10T10:02:06;5.38;;;1.02;;
47365;SDS011;33105;47.964;7.982;2023-05-10T10:05:08;3.17;;;0.65;;
47365;SDS011;33105;47.964;7.982;2023-05-10T10:08:10;1.98;;;0.70;;
47365;SDS011;33105;47.964;7.982;2023-05-10T10:11:12;2.00;;;0.80;;
47365;SDS011;33105;47.964;7.982;2023-05-10T10:14:14;5.97;;;0.90;;
47365;SDS011;33105;47.964;7.982;2023-05-10T10:17:15;2.67;;;0.80;;
47365;SDS011;33105;47.964;7.982;2023-05-10T10:20:18;10.05;;;0.88;;
47365;SDS011;33105;47.964;7.982;2023-05-10T10:23:20;6.35;;;0.70;;
47365;SDS011;33105;47.964;7.982;2023-05-10T10:26:21;6.93;;;0.80;;
47365;SDS011;33105;47.964;7.982;2023-05-10T10:32:37;5.60;;;0.70;;
47365;SDS011;33105;47.964;7.982;2023-05-10T10:35:58;2.47;;;0.70;;
47365;SDS011;33105;47.964;7.982;2023-05-10T10:39:07;3.08;;;0.80;;
47365;SDS011;33105;47.964;7.982;2023-05-10T10:42:10;5.72;;;1.40;;
47365;SDS011;33105;47.964;7.982;2023-05-10T10:45:11;3.78;;;0.82;;
47365;SDS011;33105;47.964;7.982;2023-05-10T10:48:22;3.75;;;1.17;;
47365;SDS011;33105;47.964;7.982;2023-05-10T10:51:24;5.95;;;0.73;;
47365;SDS011;33105;47.964;7.982;2023-05-10T10:54:29;5.35;;;0.90;;
47365;SDS011;33105;47.964;7.982;2023-05-10T10:57:42;3.10;;;0.60;;
47365;SDS011;33105;47.964;7.982;2023-05-10T11:00:50;2.90;;;0.73;;
47365;SDS011;33105;47.964;7.982;2023-05-10T11:07:18;4.30;;;0.70;;
47365;SDS011;33105;47.964;7.982;2023-05-10T11:10:21;7.35;;;0.88;;
47365;SDS011;33105;47.964;7.982;2023-05-10T11:13:27;6.75;;;1.13;;
47365;SDS011;33105;47.964;7.982;2023-05-10T11:16:29;3.58;;;0.80;;
47365;SDS011;33105;47.964;7.982;2023-05-10T11:19:57;4.28;;;0.70;;
47365;SDS011;33105;47.964;7.982;2023-05-10T11:23:15;6.78;;;1.00;;
47365;SDS011;33105;47.964;7.982;2023-05-10T11:26:16;5.60;;;0.80;;
47365;SDS011;33105;47.964;7.982;2023-05-10T11:29:18;7.30;;;0.93;;
47365;SDS011;33105;47.964;7.982;2023-05-10T11:32:20;1.80;;;0.68;;
47365;SDS011;33105;47.964;7.982;2023-05-10T11:35:22;4.40;;;0.77;;
47365;SDS011;33105;47.964;7.982;2023-05-10T11:38:23;2.95;;;0.70;;
47365;SDS011;33105;47.964;7.982;2023-05-10T11:41:25;2.55;;;0.50;;
47365;SDS011;33105;47.964;7.982;2023-05-10T11:44:29;2.65;;;0.70;;
47365;SDS011;33105;47.964;7.982;2023-05-10T11:47:32;4.70;;;0.82;;
47365;SDS011;33105;47.964;7.982;2023-05-10T11:50:33;3.22;;;0.85;;
47365;SDS011;33105;47.964;7.982;2023-05-10T11:53:34;2.38;;;0.40;;
47365;SDS011;33105;47.964;7.982;2023-05-10T11:56:36;4.00;;;0.60;;
47365;SDS011;33105;47.964;7.982;2023-05-10T11:59:38;2.55;;;0.85;;
47365;SDS011;33105;47.964;7.982;2023-05-10T12:02:40;2.70;;;0.70;;
47365;SDS011;33105;47.964;7.982;2023-05-10T12:05:41;4.45;;;0.93;;
47365;SDS011;33105;47.964;7.982;2023-05-10T12:08:46;5.88;;;1.00;;
47365;SDS011;33105;47.964;7.982;2023-05-10T12:11:48;3.55;;;0.70;;
47365;SDS011;33105;47.964;7.982;2023-05-10T12:14:50;5.85;;;0.80;;
47365;SDS011;33105;47.964;7.982;2023-05-10T12:17:51;2.35;;;0.77;;
47365;SDS011;33105;47.964;7.982;2023-05-10T12:20:53;3.08;;;0.95;;
47365;SDS011;33105;47.964;7.982;2023-05-10T12:23:56;4.28;;;0.90;;
47365;SDS011;33105;47.964;7.982;2023-05-10T12:27:04;1.70;;;0.68;;
47365;SDS011;33105;47.964;7.982;2023-05-10T12:30:06;4.53;;;0.77;;
47365;SDS011;33105;47.964;7.982;2023-05-10T12:33:09;3.83;;;0.60;;
47365;SDS011;33105;47.964;7.982;2023-05-10T12:36:15;0.73;;;0.40;;
47365;SDS011;33105;47.964;7.982;2023-05-10T12:39:18;1.60;;;0.43;;
47365;SDS011;33105;47.964;7.982;2023-05-10T12:42:19;2.17;;;0.40;;
47365;SDS011;33105;47.964;7.982;2023-05-10T12:45:20;9.98;;;0.63;;
47365;SDS011;33105;47.964;7.982;2023-05-10T12:48:22;2.17;;;0.65;;
47365;SDS011;33105;47.964;7.982;2023-05-10T12:51:24;7.07;;;0.75;;
47365;SDS011;33105;47.964;7.982;2023-05-10T12:54:25;4.07;;;0.68;;
47365;SDS011;33105;47.964;7.982;2023-05-10T12:57:26;4.75;;;0.80;;
47365;SDS011;33105;47.964;7.982;2023-05-10T13:00:28;5.60;;;1.55;;
47365;SDS011;33105;47.964;7.982;2023-05-10T13:03:29;5.53;;;0.98;;
47365;SDS011;33105;47.964;7.982;2023-05-10T13:06:31;6.72;;;1.02;;
47365;SDS011;33105;47.964;7.982;2023-05-10T13:09:32;3.78;;;0.90;;
47365;SDS011;33105;47.964;7.982;2023-05-10T13:12:34;1.95;;;0.60;;
47365;SDS011;33105;47.964;7.982;2023-05-10T13:15:35;5.65;;;0.73;;
47365;SDS011;33105;47.964;7.982;2023-05-10T13:18:36;4.97;;;0.68;;
47365;SDS011;33105;47.964;7.982;2023-05-10T13:21:37;5.95;;;1.08;;
47365;SDS011;33105;47.964;7.982;2023-05-10T13:24:39;2.90;;;0.75;;
47365;SDS011;33105;47.964;7.982;2023-05-10T13:27:40;2.83;;;0.50;;
47365;SDS011;33105;47.964;7.982;2023-05-10T13:30:41;5.20;;;0.68;;
47365;SDS011;33105;47.964;7.982;2023-05-10T13:33:42;1.08;;;0.55;;
47365;SDS011;33105;47.964;7.982;2023-05-10T13:36:44;2.38;;;0.47;;
47365;SDS011;33105;47.964;7.982;2023-05-10T13:39:46;3.00;;;0.55;;
47365;SDS011;33105;47.964;7.982;2023-05-10T13:42:47;1.63;;;0.60;;
47365;SDS011;33105;47.964;7.982;2023-05-10T13:45:48;4.97;;;0.65;;
47365;SDS011;33105;47.964;7.982;2023-05-10T13:48:49;0.75;;;0.50;;
47365;SDS011;33105;47.964;7.982;2023-05-10T13:51:50;3.00;;;0.40;;
47365;SDS011;33105;47.964;7.982;2023-05-10T13:54:52;3.15;;;0.40;;
47365;SDS011;33105;47.964;7.982;2023-05-10T13:57:55;3.40;;;0.30;;
47365;SDS011;33105;47.964;7.982;2023-05-10T14:00:57;0.57;;;0.20;;
47365;SDS011;33105;47.964;7.982;2023-05-10T14:03:59;2.35;;;0.30;;
47365;SDS011;33105;47.964;7.982;2023-05-10T14:07:00;1.65;;;0.40;;
47365;SDS011;33105;47.964;7.982;2023-05-10T14:10:02;0.93;;;0.40;;
47365;SDS011;33105;47.964;7.982;2023-05-10T14:13:03;1.05;;;0.40;;
47365;SDS011;33105;47.964;7.982;2023-05-10T14:16:04;1.35;;;0.35;;
47365;SDS011;33105;47.964;7.982;2023-05-10T14:19:06;1.23;;;0.30;;
47365;SDS011;33105;47.964;7.982;2023-05-10T14:22:07;0.52;;;0.30;;
47365;SDS011;33105;47.964;7.982;2023-05-10T14:25:08;0.65;;;0.28;;
47365;SDS011;33105;47.964;7.982;2023-05-10T14:28:10;1.42;;;0.30;;
47365;SDS011;33105;47.964;7.982;2023-05-10T14:31:12;2.00;;;0.50;;
47365;SDS011;33105;47.964;7.982;2023-05-10T14:34:13;1.05;;;0.30;;
47365;SDS011;33105;47.964;7.982;2023-05-10T14:37:14;0.28;;;0.20;;
47365;SDS011;33105;47.964;7.982;2023-05-10T14:40:17;1.33;;;0.30;;
47365;SDS011;33105;47.964;7.982;2023-05-10T14:43:18;1.58;;;0.40;;
47365;SDS011;33105;47.964;7.982;2023-05-10T14:46:19;1.35;;;0.30;;
47365;SDS011;33105;47.964;7.982;2023-05-10T14:49:21;0.57;;;0.20;;
47365;SDS011;33105;47.964;7.982;2023-05-10T14:52:23;1.00;;;0.43;;
47365;SDS011;33105;47.964;7.982;2023-05-10T14:55:24;0.40;;;0.30;;
47365;SDS011;33105;47.964;7.982;2023-05-10T14:58:25;0.52;;;0.40;;
47365;SDS011;33105;47.964;7.982;2023-05-10T15:01:27;2.72;;;0.50;;
47365;SDS011;33105;47.964;7.982;2023-05-10T15:04:29;1.70;;;0.50;;
47365;SDS011;33105;47.964;7.982;2023-05-10T15:07:30;3.75;;;0.32;;
47365;SDS011;33105;47.964;7.982;2023-05-10T15:10:32;3.22;;;0.40;;
47365;SDS011;33105;47.964;7.982;2023-05-10T15:13:33;1.55;;;0.20;;
47365;SDS011;33105;47.964;7.982;2023-05-10T15:16:34;1.60;;;0.60;;
47365;SDS011;33105;47.964;7.982;2023-05-10T15:19:36;4.05;;;1.15;;
47365;SDS011;33105;47.964;7.982;2023-05-10T15:22:37;3.13;;;0.50;;
47365;SDS011;33105;47.964;7.982;2023-05-10T15:25:39;3.58;;;0.40;;
47365;SDS011;33105;47.964;7.982;2023-05-10T15:28:40;2.28;;;0.35;;
47365;SDS011;33105;47.964;7.982;2023-05-10T15:31:42;0.57;;;0.40;;
47365;SDS011;33105;47.964;7.982;2023-05-10T15:34:43;1.27;;;0.50;;
47365;SDS011;33105;47.964;7.982;2023-05-10T15:37:44;2.40;;;0.47;;
47365;SDS011;33105;47.964;7.982;2023-05-10T15:40:46;4.22;;;0.60;;
47365;SDS011;33105;47.964;7.982;2023-05-10T15:43:48;1.58;;;0.70;;
47365;SDS011;33105;47.964;7.982;2023-05-10T15:46:49;0.88;;;0.30;;
47365;SDS011;33105;47.964;7.982;2023-05-10T15:49:50;1.02;;;0.30;;
47365;SDS011;33105;47.964;7.982;2023-05-10T15:52:51;1.50;;;0.40;;
47365;SDS011;33105;47.964;7.982;2023-05-10T15:55:53;1.77;;;0.38;;
47365;SDS011;33105;47.964;7.982;2023-05-10T15:58:55;1.50;;;0.32;;
47365;SDS011;33105;47.964;7.982;2023-05-10T16:01:56;2.97;;;0.75;;
47365;SDS011;33105;47.964;7.982;2023-05-10T16:04:57;3.08;;;0.47;;
47365;SDS011;33105;47.964;7.982;2023-05-10T16:07:59;3.53;;;0.38;;
47365;SDS011;33105;47.964;7.982;2023-05-10T16:11:01;0.75;;;0.20;;
47365;SDS011;33105;47.964;7.982;2023-05-10T16:14:03;1.85;;;0.38;;
47365;SDS011;33105;47.964;7.982;2023-05-10T16:17:04;1.35;;;0.40;;
47365;SDS011;33105;47.964;7.982;2023-05-10T16:20:05;0.63;;;0.30;;
47365;SDS011;33105;47.964;7.982;2023-05-10T16:23:07;2.22;;;0.40;;
47365;SDS011;33105;47.964;7.982;2023-05-10T16:26:08;1.92;;;0.35;;
47365;SDS011;33105;47.964;7.982;2023-05-10T16:29:09;1.25;;;0.40;;
47365;SDS011;33105;47.964;7.982;2023-05-10T16:32:11;1.85;;;0.40;;
47365;SDS011;33105;47.964;7.982;2023-05-10T16:35:12;2.60;;;0.50;;
47365;SDS011;33105;47.964;7.982;2023-05-10T16:38:13;0.60;;;0.30;;
47365;SDS011;33105;47.964;7.982;2023-05-10T16:41:14;1.10;;;0.55;;
47365;SDS011;33105;47.964;7.982;2023-05-10T16:44:16;2.20;;;0.30;;
47365;SDS011;33105;47.964;7.982;2023-05-10T16:47:17;1.08;;;0.30;;
47365;SDS011;33105;47.964;7.982;2023-05-10T16:50:19;2.63;;;0.45;;
47365;SDS011;33105;47.964;7.982;2023-05-10T16:53:20;1.38;;;0.40;;
47365;SDS011;33105;47.964;7.982;2023-05-10T16:56:21;3.00;;;0.40;;
47365;SDS011;33105;47.964;7.982;2023-05-10T16:59:23;1.20;;;0.52;;
47365;SDS011;33105;47.964;7.982;2023-05-10T17:02:24;1.40;;;0.40;;
47365;SDS011;33105;47.964;7.982;2023-05-10T17:05:25;1.38;;;0.32;;
47365;SDS011;33105;47.964;7.982;2023-05-10T17:08:27;2.55;;;0.32;;
47365;SDS011;33105;47.964;7.982;2023-05-10T17:11:28;2.22;;;0.40;;
47365;SDS011;33105;47.964;7.982;2023-05-10T17:14:29;1.65;;;0.40;;
47365;SDS011;33105;47.964;7.982;2023-05-10T17:17:31;2.75;;;0.17;;
47365;SDS011;33105;47.964;7.982;2023-05-10T17:20:32;2.95;;;0.30;;
47365;SDS011;33105;47.964;7.982;2023-05-10T17:23:34;1.20;;;0.13;;
47365;SDS011;33105;47.964;7.982;2023-05-10T17:26:35;0.93;;;0.30;;
47365;SDS011;33105;47.964;7.982;2023-05-10T17:29:37;1.17;;;0.28;;
47365;SDS011;33105;47.964;7.982;2023-05-10T17:32:38;1.58;;;0.38;;
47365;SDS011;33105;47.964;7.982;2023-05-10T17:35:39;1.02;;;0.30;;
47365;SDS011;33105;47.964;7.982;2023-05-10T17:38:40;0.85;;;0.32;;
47365;SDS011;33105;47.964;7.982;2023-05-10T17:41:43;1.73;;;0.28;;
47365;SDS011;33105;47.964;7.982;2023-05-10T17:44:44;1.63;;;0.30;;
47365;SDS011;33105;47.964;7.982;2023-05-10T17:47:45;4.45;;;0.47;;
47365;SDS011;33105;47.964;7.982;2023-05-10T17:50:49;2.10;;;0.17;;
47365;SDS011;33105;47.964;7.982;2023-05-10T17:53:51;1.27;;;0.50;;
47365;SDS011;33105;47.964;7.982;2023-05-10T17:56:52;0.30;;;0.30;;
47365;SDS011;33105;47.964;7.982;2023-05-10T17:59:53;1.02;;;0.30;;
47365;SDS011;33105;47.964;7.982;2023-05-10T18:02:55;4.90;;;0.82;;
47365;SDS011;33105;47.964;7.982;2023-05-10T18:05:56;1.88;;;0.30;;
47365;SDS011;33105;47.964;7.982;2023-05-10T18:08:58;4.32;;;0.20;;
47365;SDS011;33105;47.964;7.982;2023-05-10T18:12:00;2.10;;;0.40;;
47365;SDS011;33105;47.964;7.982;2023-05-10T18:15:02;1.95;;;0.30;;
47365;SDS011;33105;47.964;7.982;2023-05-10T18:18:05;2.20;;;0.38;;
47365;SDS011;33105;47.964;7.982;2023-05-10T18:21:06;2.78;;;0.38;;
47365;SDS011;33105;47.964;7.982;2023-05-10T18:24:09;1.02;;;0.40;;
47365;SDS011;33105;47.964;7.982;2023-05-10T18:27:10;1.17;;;0.20;;
47365;SDS011;33105;47.964;7.982;2023-05-10T18:30:12;1.42;;;0.30;;
47365;SDS011;33105;47.964;7.982;2023-05-10T18:33:14;1.00;;;0.30;;
47365;SDS011;33105;47.964;7.982;2023-05-10T18:36:15;0.73;;;0.40;;
47365;SDS011;33105;47.964;7.982;2023-05-10T18:39:17;0.70;;;0.20;;
47365;SDS011;33105;47.964;7.982;2023-05-10T18:42:18;0.20;;;0.20;;
47365;SDS011;33105;47.964;7.982;2023-05-10T18:45:20;0.82;;;0.25;;
47365;SDS011;33105;47.964;7.982;2023-05-10T18:48:21;1.38;;;0.40;;